Terminal Aerodrome Forecast
Issued by NWS Wilmington, NC

Home | Current Version | Previous Version | Text Only | Print | Product List | Glossary On
Versions: 1 2 3 4 5 6 7 8 9 10 11 12 13 14 15 16 17 18 19 20 21 22 23 24 25 26 27 28 29 30 31 32 33 34 35
000
FTUS42 KILM 021202 CCA
TAFLBT
TAF COR
KLBT 021202Z 0212/0312 23011KT P6SM VCSH SCT015 BKN120 BKN250
      TEMPO 0212/0213 BKN008
     FM021700 24010KT P6SM VCTS SCT020 SCT035CB BKN250
     FM022200 21010KT P6SM VCSH SCT040 OVC250
     FM030000 20006KT P6SM OVC250 PROB30 0300/0304 P6SM TS BKN050CB=

USA.gov is the U.S. government's official web portal to all federal, state and local government web resources and services.